Spread Eagle — 9V2314 — position and weather

sailwx.info

Track history (hours):
 
Tides and Currents Weather Stations Pressure Air Temp Water Temp Dewpoint Dewpoint Depression Visibility Wind Speed Wind Dir Waves Ship Positions

Spread Eagle

Last reported at 2018-May-22 12:03 UTC. Time now 2018-May-22 19:43 UTC.
Position N 29°44' W 095°12'.

Length 224 m; draft 8 m.

Type: Tanker. MMSI: 565113000.

Date/timePositionNaut miles runAvg speedWind from/ knotsBaromVisibWave heightAir tempDewpointWater temp
2018-May-22 12:03N 29°44' W 095°12'0 0.2
2018-May-22 12:01N 29°44' W 095°12'1 1.9
2018-May-22 11:30N 29°45' W 095°11'3 5.5
2018-May-22 11:00N 29°44' W 095°08'3 6.5
2018-May-22 10:30N 29°46' W 095°05'4 8.2
2018-May-22 10:00N 29°43' W 095°01'4 8.8
2018-May-22 09:30N 29°40' W 094°58'611.3
2018-May-22 09:00N 29°35' W 094°56'612.0
2018-May-22 08:30N 29°30' W 094°52'611.7
2018-May-22 08:00N 29°24' W 094°49'510.7
2018-May-22 07:30N 29°21' W 094°45'611.6
2018-May-22 07:00N 29°19' W 094°38'5 9.9
2018-May-22 06:30N 29°18' W 094°33'0 0.2
2018-May-22 05:41N 29°18' W 094°33'0 0.0
2018-May-22 05:26N 29°18' W 094°33'0 0.0
2018-May-22 04:53N 29°18' W 094°33'0 0.0
2018-May-22 04:23N 29°18' W 094°33'0 0.0
2018-May-22 03:38N 29°18' W 094°33'0 0.0
2018-May-22 03:29N 29°18' W 094°33'0 0.0
2018-May-21 23:08N 29°18' W 094°33'0 0.0
2018-May-21 20:50N 29°18' W 094°33'0 0.0
2018-May-21 20:26N 29°18' W 094°33'0 0.0
2018-May-21 19:47N 29°18' W 094°33'0 0.0
2018-May-21 19:29N 29°18' W 094°33'0 0.0
2018-May-21 18:38N 29°18' W 094°33'0 0.0
2018-May-21 18:23N 29°18' W 094°33'0 0.0
2018-May-21 13:56N 29°18' W 094°33'0 0.0
2018-May-21 05:20N 29°18' W 094°33'0 0.1
2018-May-21 04:59N 29°18' W 094°33'0 0.1
2018-May-21 04:29N 29°18' W 094°33'0 0.1
2018-May-21 03:53N 29°17' W 094°33'0 0.1
2018-May-21 03:26N 29°18' W 094°33'0 0.3
2018-May-21 02:38N 29°18' W 094°33'0 0.0
2018-May-21 02:23N 29°18' W 094°33'0 0.0
2018-May-20 22:59N 29°18' W 094°33'0 0.3
2018-May-20 22:25N 29°18' W 094°33'1 1.7
2018-May-20 22:00N 29°17' W 094°33'3 6.2
2018-May-20 21:30N 29°15' W 094°31'811.6
2018-May-20 20:48N 29°09' W 094°25'513.9
2018-May-20 20:25N 29°03' W 094°25'3214.0
2018-May-20 18:09N 28°32' W 094°25'  
2018-May-18 00:22N 25°19' W 079°32'514.2
2018-May-18 00:00N 25°24' W 079°32'612.8
2018-May-17 23:30N 25°30' W 079°32'612.4
2018-May-17 23:00N 25°36' W 079°32'713.8
2018-May-17 22:30N 25°43' W 079°32'713.8
2018-May-17 22:00N 25°50' W 079°31'713.4
2018-May-17 21:30N 25°57' W 079°30'713.6
2018-May-17 21:00N 26°03' W 079°26'713.9
2018-May-17 20:30N 26°08' W 079°22'713.9
2018-May-17 20:00N 26°14' W 079°18'  
Track history (hours):
 
Tides and Currents Weather Stations Pressure Air Temp Water Temp Dewpoint Dewpoint Depression Visibility Wind Speed Wind Dir Waves Ship Positions

Spread Eagle

Last reported at 2018-May-22 12:03 UTC. Time now 2018-May-22 19:43 UTC.
Position N 29°44' W 095°12'.

Length 224 m; draft 8 m.

Type: Tanker. MMSI: 565113000.

Date/timePositionNaut miles runAvg speedWind from/ knotsBaromVisibWave heightAir tempDewpointWater temp
2018-May-22 12:03N 29°44' W 095°12'0 0.2
2018-May-22 12:01N 29°44' W 095°12'1 1.9
2018-May-22 11:30N 29°45' W 095°11'3 5.5
2018-May-22 11:00N 29°44' W 095°08'3 6.5
2018-May-22 10:30N 29°46' W 095°05'4 8.2
2018-May-22 10:00N 29°43' W 095°01'4 8.8
2018-May-22 09:30N 29°40' W 094°58'611.3
2018-May-22 09:00N 29°35' W 094°56'612.0
2018-May-22 08:30N 29°30' W 094°52'611.7
2018-May-22 08:00N 29°24' W 094°49'510.7
2018-May-22 07:30N 29°21' W 094°45'611.6
2018-May-22 07:00N 29°19' W 094°38'5 9.9
2018-May-22 06:30N 29°18' W 094°33'0 0.2
2018-May-22 05:41N 29°18' W 094°33'0 0.0
2018-May-22 05:26N 29°18' W 094°33'0 0.0
2018-May-22 04:53N 29°18' W 094°33'0 0.0
2018-May-22 04:23N 29°18' W 094°33'0 0.0
2018-May-22 03:38N 29°18' W 094°33'0 0.0
2018-May-22 03:29N 29°18' W 094°33'0 0.0
2018-May-21 23:08N 29°18' W 094°33'0 0.0
2018-May-21 20:50N 29°18' W 094°33'0 0.0
2018-May-21 20:26N 29°18' W 094°33'0 0.0
2018-May-21 19:47N 29°18' W 094°33'0 0.0
2018-May-21 19:29N 29°18' W 094°33'0 0.0
2018-May-21 18:38N 29°18' W 094°33'0 0.0
2018-May-21 18:23N 29°18' W 094°33'0 0.0
2018-May-21 13:56N 29°18' W 094°33'0 0.0
2018-May-21 05:20N 29°18' W 094°33'0 0.1
2018-May-21 04:59N 29°18' W 094°33'0 0.1
2018-May-21 04:29N 29°18' W 094°33'0 0.1
2018-May-21 03:53N 29°17' W 094°33'0 0.1
2018-May-21 03:26N 29°18' W 094°33'0 0.3
2018-May-21 02:38N 29°18' W 094°33'0 0.0
2018-May-21 02:23N 29°18' W 094°33'0 0.0
2018-May-20 22:59N 29°18' W 094°33'0 0.3
2018-May-20 22:25N 29°18' W 094°33'1 1.7
2018-May-20 22:00N 29°17' W 094°33'3 6.2
2018-May-20 21:30N 29°15' W 094°31'811.6
2018-May-20 20:48N 29°09' W 094°25'513.9
2018-May-20 20:25N 29°03' W 094°25'3214.0
2018-May-20 18:09N 28°32' W 094°25'  
2018-May-18 00:22N 25°19' W 079°32'514.2
2018-May-18 00:00N 25°24' W 079°32'612.8
2018-May-17 23:30N 25°30' W 079°32'612.4
2018-May-17 23:00N 25°36' W 079°32'713.8
2018-May-17 22:30N 25°43' W 079°32'713.8
2018-May-17 22:00N 25°50' W 079°31'713.4
2018-May-17 21:30N 25°57' W 079°30'713.6
2018-May-17 21:00N 26°03' W 079°26'713.9
2018-May-17 20:30N 26°08' W 079°22'713.9
2018-May-17 20:00N 26°14' W 079°18'  

Dump ship's entire track history